Time;durP1;ratioP1;P1;durP2;ratioP2;P2;SDS_P1;SDS_P2;PMS_P1;PMS_P2;Temp;Humidity;BMP_temperature;BMP_pressure;BME280_temperature;BME280_humidity;BME280_pressure;Samples;Min_cycle;Max_cycle;Signal;HPM_P1;HPM_P2
2021/09/06 00:01:16;;;;;;;4.95;3.08;;;22.60;44.40;;;;;;4166534;28;20073;-50
2021/09/06 00:03:18;;;;;;;3.38;2.55;;;22.60;44.50;;;;;;4166536;28;20052;-50
2021/09/06 00:05:20;;;;;;;3.63;2.65;;;22.60;44.50;;;;;;4166217;28;20094;-53
2021/09/06 00:07:22;;;;;;;3.30;2.67;;;22.60;44.40;;;;;;4166554;28;20161;-51
2021/09/06 00:09:25;;;;;;;3.63;2.75;;;22.60;43.90;;;;;;4166643;28;20048;-50
2021/09/06 00:11:27;;;;;;;5.97;2.53;;;22.60;44.30;;;;;;4166653;28;20076;-52
2021/09/06 00:13:29;;;;;;;3.13;2.50;;;22.50;44.00;;;;;;4166324;28;20038;-51
2021/09/06 00:15:31;;;;;;;3.60;2.70;;;22.60;43.90;;;;;;4166410;28;20101;-49
2021/09/06 00:17:33;;;;;;;4.07;2.47;;;22.50;44.00;;;;;;4166376;28;20101;-50
2021/09/06 00:19:35;;;;;;;5.05;2.50;;;22.50;44.00;;;;;;4165423;28;20097;-54
2021/09/06 00:21:37;;;;;;;3.38;2.63;;;22.60;43.80;;;;;;4165901;28;20049;-55
2021/09/06 00:23:39;;;;;;;4.60;2.40;;;22.50;43.70;;;;;;4181722;28;20052;-54
2021/09/06 00:25:42;;;;;;;3.33;2.50;;;22.50;44.00;;;;;;4166049;28;20093;-53
2021/09/06 00:27:43;;;;;;;4.00;2.67;;;22.50;44.00;;;;;;4165958;28;20052;-52
2021/09/06 00:29:45;;;;;;;3.78;2.25;;;22.50;44.00;;;;;;4164550;28;20042;-53
2021/09/06 00:31:48;;;;;;;3.60;2.47;;;22.50;43.70;;;;;;4163131;28;20098;-53
2021/09/06 00:33:50;;;;;;;4.03;2.55;;;22.50;43.70;;;;;;4166108;28;20049;-53
2021/09/06 00:35:52;;;;;;;4.03;2.80;;;22.50;43.80;;;;;;4165901;28;20056;-53
2021/09/06 00:37:54;;;;;;;6.68;3.90;;;22.50;44.00;;;;;;4165910;28;20097;-54
2021/09/06 00:39:56;;;;;;;7.30;3.60;;;22.50;43.60;;;;;;4166039;28;20042;-54
2021/09/06 00:41:58;;;;;;;6.55;3.70;;;22.50;43.50;;;;;;4166250;28;20056;-50
2021/09/06 00:44:02;;;;;;;5.88;3.00;;;22.50;43.70;;;;;;4181478;28;20045;-51
2021/09/06 00:46:04;;;;;;;6.05;3.42;;;22.50;43.70;;;;;;4181429;28;20050;-50
2021/09/06 00:48:07;;;;;;;6.10;3.20;;;22.50;43.80;;;;;;4165959;28;20061;-51
2021/09/06 00:50:15;;;;;;;7.05;3.97;;;22.50;43.50;;;;;;4165673;28;20069;-52
2021/09/06 00:52:17;;;;;;;6.82;3.70;;;22.50;43.60;;;;;;4165809;28;20046;-54
2021/09/06 00:54:19;;;;;;;7.40;4.35;;;22.50;43.50;;;;;;4165924;28;20066;-49
2021/09/06 00:56:21;;;;;;;7.95;4.30;;;22.50;43.40;;;;;;4165974;28;20400;-53
2021/09/06 00:58:25;;;;;;;6.78;4.07;;;22.50;43.70;;;;;;4165778;28;20105;-52
2021/09/06 01:00:27;;;;;;;7.97;4.53;;;22.50;43.50;;;;;;4165865;28;20069;-51
2021/09/06 01:02:29;;;;;;;11.48;5.15;;;22.50;43.40;;;;;;4165624;28;20084;-50
2021/09/06 01:04:32;;;;;;;8.68;5.00;;;22.50;43.20;;;;;;4165528;28;20042;-50
2021/09/06 01:06:34;;;;;;;10.88;5.40;;;22.50;43.50;;;;;;4165805;28;20125;-52
2021/09/06 01:08:36;;;;;;;8.95;4.65;;;22.50;43.60;;;;;;4165917;28;20066;-53
2021/09/06 01:10:38;;;;;;;7.90;4.65;;;22.50;43.60;;;;;;4164679;28;20120;-52
2021/09/06 01:12:41;;;;;;;6.22;4.22;;;22.50;43.60;;;;;;4165642;28;20037;-51
2021/09/06 01:14:43;;;;;;;6.38;3.95;;;22.50;43.60;;;;;;4164651;28;20050;-52
2021/09/06 01:16:45;;;;;;;7.07;3.92;;;22.50;43.40;;;;;;4165570;28;20041;-50
2021/09/06 01:18:47;;;;;;;7.78;4.50;;;22.50;43.60;;;;;;4165648;28;21010;-52
2021/09/06 01:20:49;;;;;;;7.93;4.40;;;22.50;43.50;;;;;;4165538;28;20077;-53
2021/09/06 01:22:51;;;;;;;5.80;3.92;;;22.50;43.60;;;;;;4165381;28;20068;-53
2021/09/06 01:24:53;;;;;;;6.53;3.97;;;22.50;43.40;;;;;;4165272;28;20041;-48
2021/09/06 01:26:55;;;;;;;8.95;4.00;;;22.50;43.50;;;;;;4165393;28;20038;-53
2021/09/06 01:28:57;;;;;;;7.95;5.07;;;22.50;43.40;;;;;;4165382;28;20046;-49
2021/09/06 01:30:59;;;;;;;11.60;5.18;;;22.50;43.30;;;;;;4165353;28;20045;-50
2021/09/06 01:33:01;;;;;;;8.88;5.07;;;22.50;43.30;;;;;;4165336;28;20057;-50
2021/09/06 01:35:04;;;;;;;8.77;4.78;;;22.50;43.40;;;;;;4165180;28;20105;-50
2021/09/06 01:37:06;;;;;;;8.57;4.57;;;22.40;43.30;;;;;;4165248;28;20054;-49
2021/09/06 01:39:08;;;;;;;7.05;4.32;;;22.50;43.30;;;;;;4165243;28;20073;-49
2021/09/06 01:41:10;;;;;;;7.22;3.90;;;22.40;43.30;;;;;;4165389;28;20046;-51
2021/09/06 01:43:12;;;;;;;6.45;4.00;;;22.50;43.30;;;;;;4165247;28;20069;-53
2021/09/06 01:45:14;;;;;;;4.63;3.33;;;22.50;43.20;;;;;;4164212;28;20112;-53
2021/09/06 01:47:16;;;;;;;5.90;3.67;;;22.50;43.00;;;;;;4165127;28;20042;-54
2021/09/06 01:49:19;;;;;;;6.60;3.55;;;22.40;43.20;;;;;;4164922;28;20105;-51
2021/09/06 01:51:21;;;;;;;8.23;4.43;;;22.50;42.90;;;;;;4165055;28;20069;-51
2021/09/06 01:53:23;;;;;;;6.70;4.20;;;22.40;43.00;;;;;;4165193;28;20191;-51
2021/09/06 01:55:25;;;;;;;11.48;4.75;;;22.40;43.20;;;;;;4164967;28;20101;-49
2021/09/06 01:57:26;;;;;;;11.25;4.80;;;22.40;43.20;;;;;;4164986;28;20073;-51
2021/09/06 01:59:28;;;;;;;14.38;4.75;;;22.40;43.00;;;;;;4163994;28;20060;-54
2021/09/06 02:01:30;;;;;;;9.20;4.68;;;22.40;43.10;;;;;;4164953;28;20102;-53
2021/09/06 02:03:33;;;;;;;13.93;5.50;;;22.40;43.10;;;;;;4165015;28;20084;-51
2021/09/06 02:05:35;;;;;;;8.35;4.45;;;22.40;43.20;;;;;;4164579;28;20121;-51
2021/09/06 02:07:37;;;;;;;8.63;4.70;;;22.40;43.20;;;;;;4164817;28;20102;-51
2021/09/06 02:09:39;;;;;;;10.05;5.43;;;22.40;42.90;;;;;;4164842;28;20065;-52
2021/09/06 02:11:41;;;;;;;8.52;4.55;;;22.40;43.20;;;;;;4164743;28;20121;-49
2021/09/06 02:13:43;;;;;;;13.18;5.72;;;22.40;43.20;;;;;;4164845;28;20102;-51
2021/09/06 02:15:45;;;;;;;9.60;4.63;;;22.40;43.00;;;;;;4164856;28;20097;-50
2021/09/06 02:17:47;;;;;;;8.73;4.55;;;22.40;42.90;;;;;;4164696;28;20045;-50
2021/09/06 02:19:49;;;;;;;7.97;4.38;;;22.40;43.20;;;;;;4164582;28;20050;-50
2021/09/06 02:21:51;;;;;;;8.60;3.97;;;22.40;42.90;;;;;;4164404;28;20053;-52
2021/09/06 02:23:53;;;;;;;7.00;3.20;;;22.40;43.20;;;;;;4164775;28;20431;-52
2021/09/06 02:25:55;;;;;;;6.32;3.45;;;22.40;43.10;;;;;;4164506;28;20042;-48
2021/09/06 02:27:57;;;;;;;6.07;3.70;;;22.40;43.00;;;;;;4164573;28;20076;-49
2021/09/06 02:29:59;;;;;;;5.78;3.60;;;22.40;43.10;;;;;;4164479;28;20050;-50
2021/09/06 02:32:02;;;;;;;6.15;3.92;;;22.40;43.20;;;;;;4164434;28;20120;-50
2021/09/06 02:34:04;;;;;;;9.43;4.22;;;22.40;43.00;;;;;;4164461;28;20049;-51
2021/09/06 02:36:06;;;;;;;7.57;3.47;;;22.40;43.10;;;;;;4164573;28;20041;-52
2021/09/06 02:38:08;;;;;;;7.20;4.05;;;22.40;43.20;;;;;;4164369;28;20045;-50
2021/09/06 02:40:12;;;;;;;4.97;3.13;;;22.40;43.10;;;;;;4164469;28;20045;-49
2021/09/06 02:42:14;;;;;;;4.57;3.33;;;22.40;43.20;;;;;;4164487;28;20054;-52
2021/09/06 02:44:16;;;;;;;5.40;3.60;;;22.40;43.10;;;;;;4164253;28;20113;-50
2021/09/06 02:46:17;;;;;;;5.18;3.13;;;22.40;43.00;;;;;;4163443;28;20110;-51
2021/09/06 02:48:20;;;;;;;6.60;3.65;;;22.40;43.00;;;;;;4164223;28;20050;-50
2021/09/06 02:50:22;;;;;;;5.70;3.58;;;22.40;43.00;;;;;;4164116;28;20057;-49
2021/09/06 02:52:27;;;;;;;6.57;3.20;;;22.40;43.10;;;;;;4164301;28;20067;-51
2021/09/06 02:54:29;;;;;;;7.32;3.13;;;22.40;43.00;;;;;;4164334;28;20062;-49
2021/09/06 02:56:31;;;;;;;6.30;3.28;;;22.40;42.90;;;;;;4164188;28;20073;-52
2021/09/06 02:58:33;;;;;;;6.22;3.22;;;22.40;43.00;;;;;;4164260;28;20050;-49
2021/09/06 03:00:35;;;;;;;6.18;3.65;;;22.40;42.90;;;;;;4164254;28;20105;-49
2021/09/06 03:02:37;;;;;;;4.97;3.40;;;22.40;42.90;;;;;;4164073;28;20069;-51
2021/09/06 03:04:39;;;;;;;5.28;2.80;;;22.40;42.80;;;;;;4164064;28;20045;-50
2021/09/06 03:06:41;;;;;;;5.20;3.10;;;22.40;42.80;;;;;;4164143;28;20056;-50
2021/09/06 03:08:43;;;;;;;6.78;3.08;;;22.40;42.80;;;;;;4164121;28;20097;-51
2021/09/06 03:10:45;;;;;;;7.97;3.03;;;22.40;42.80;;;;;;4164381;28;20098;-48
2021/09/06 03:12:47;;;;;;;4.60;3.17;;;22.40;42.80;;;;;;4164170;28;20120;-49
2021/09/06 03:14:49;;;;;;;5.07;3.00;;;22.40;42.60;;;;;;4164157;28;20046;-50
2021/09/06 03:16:52;;;;;;;4.32;2.92;;;22.40;42.80;;;;;;4164162;28;20098;-50
2021/09/06 03:18:54;;;;;;;5.85;3.30;;;22.40;42.80;;;;;;4164106;28;20188;-52
2021/09/06 03:20:56;;;;;;;4.45;2.72;;;22.40;42.80;;;;;;4163447;28;20097;-49
2021/09/06 03:22:58;;;;;;;7.03;3.05;;;22.40;42.60;;;;;;4164180;28;20061;-48
2021/09/06 03:25:00;;;;;;;12.63;3.28;;;22.40;42.70;;;;;;4163983;28;20125;-51
2021/09/06 03:27:03;;;;;;;5.60;3.28;;;22.40;42.80;;;;;;4163955;28;20038;-51
2021/09/06 03:29:05;;;;;;;6.75;3.38;;;22.40;42.60;;;;;;4163177;28;20057;-51
2021/09/06 03:31:07;;;;;;;10.10;3.40;;;22.40;42.60;;;;;;4163966;28;20042;-50
2021/09/06 03:33:13;;;;;;;5.30;3.53;;;22.40;42.70;;;;;;4164036;28;20042;-49
2021/09/06 03:35:17;;;;;;;6.13;3.15;;;22.40;42.60;;;;;;4167230;28;20069;-49
2021/09/06 03:37:19;;;;;;;4.78;2.95;;;22.40;42.40;;;;;;4167264;28;20066;-50
2021/09/06 03:39:21;;;;;;;5.10;3.10;;;22.40;42.60;;;;;;4167021;28;20069;-49
2021/09/06 03:41:23;;;;;;;3.90;2.90;;;22.30;42.70;;;;;;4167070;28;20073;-49
2021/09/06 03:43:25;;;;;;;5.60;2.72;;;22.40;42.50;;;;;;4166939;28;20037;-51
2021/09/06 03:45:27;;;;;;;5.15;3.40;;;22.30;42.30;;;;;;4166975;28;20056;-52
2021/09/06 03:47:29;;;;;;;10.65;3.10;;;22.30;42.50;;;;;;4167027;28;20072;-52
2021/09/06 03:49:31;;;;;;;4.60;2.65;;;22.30;42.60;;;;;;4166617;28;20097;-49
2021/09/06 03:51:33;;;;;;;4.03;2.80;;;22.40;42.50;;;;;;4166793;28;20101;-52
2021/09/06 03:53:35;;;;;;;5.40;2.85;;;22.30;42.60;;;;;;4182341;28;20076;-48
2021/09/06 03:55:38;;;;;;;5.63;2.33;;;22.40;42.60;;;;;;4166824;28;20056;-51
2021/09/06 03:57:40;;;;;;;4.00;2.50;;;22.30;42.50;;;;;;4166868;28;20046;-49
2021/09/06 03:59:42;;;;;;;5.60;2.70;;;22.30;42.50;;;;;;4182353;28;20083;-51
2021/09/06 04:01:44;;;;;;;6.10;3.08;;;22.40;42.60;;;;;;4166723;28;20076;-48
2021/09/06 04:03:46;;;;;;;4.32;2.67;;;22.30;42.60;;;;;;4166517;28;20050;-49
2021/09/06 04:05:49;;;;;;;5.53;2.95;;;22.30;42.50;;;;;;4166540;28;20042;-49
2021/09/06 04:07:50;;;;;;;7.40;3.20;;;22.30;42.50;;;;;;4166791;28;20038;-51
2021/09/06 04:09:53;;;;;;;3.85;2.97;;;22.30;42.60;;;;;;4166623;28;20049;-48
2021/09/06 04:11:55;;;;;;;4.85;2.80;;;22.30;42.40;;;;;;4166390;28;20076;-49
2021/09/06 04:13:57;;;;;;;4.50;3.13;;;22.30;42.50;;;;;;4166243;28;20049;-50
2021/09/06 04:16:00;;;;;;;4.28;2.83;;;22.30;42.40;;;;;;4166511;28;20526;-49
2021/09/06 04:18:02;;;;;;;3.92;2.65;;;22.30;42.50;;;;;;4166289;28;20042;-49
2021/09/06 04:20:05;;;;;;;5.68;3.10;;;22.30;42.50;;;;;;4166646;28;20110;-49
2021/09/06 04:22:07;;;;;;;4.35;2.90;;;22.30;42.50;;;;;;4166483;28;20102;-49
2021/09/06 04:24:09;;;;;;;4.38;2.95;;;22.30;42.40;;;;;;4166409;28;20056;-49
2021/09/06 04:26:11;;;;;;;4.53;2.90;;;22.30;42.50;;;;;;4166241;28;20052;-50
2021/09/06 04:28:13;;;;;;;6.18;3.13;;;22.30;42.50;;;;;;4166338;28;20037;-49
2021/09/06 04:30:15;;;;;;;4.18;2.70;;;22.40;42.30;;;;;;4166374;28;20068;-48
2021/09/06 04:32:17;;;;;;;4.60;2.63;;;22.30;42.50;;;;;;4166244;28;20050;-49
2021/09/06 04:34:19;;;;;;;3.80;2.92;;;22.30;42.50;;;;;;4166085;28;20042;-48
2021/09/06 04:36:21;;;;;;;3.88;2.55;;;22.30;42.50;;;;;;4165967;28;20574;-51
2021/09/06 04:38:23;;;;;;;3.90;3.00;;;22.30;42.50;;;;;;4165096;28;20064;-48
2021/09/06 04:40:25;;;;;;;4.40;2.83;;;22.30;42.50;;;;;;4165982;28;20105;-52
2021/09/06 04:42:27;;;;;;;6.18;3.42;;;22.30;42.50;;;;;;4166032;28;20101;-53
2021/09/06 04:44:29;;;;;;;6.25;3.33;;;22.30;42.50;;;;;;4165689;28;20109;-55
2021/09/06 04:46:31;;;;;;;5.45;3.08;;;22.20;42.50;;;;;;4165720;28;20042;-48
2021/09/06 04:48:34;;;;;;;4.18;2.60;;;22.30;42.40;;;;;;4165853;28;20046;-52
2021/09/06 04:50:37;;;;;;;3.38;2.72;;;22.30;42.60;;;;;;4165753;28;20050;-48
2021/09/06 04:52:39;;;;;;;5.75;3.40;;;22.30;42.60;;;;;;4166057;28;20113;-50
2021/09/06 04:54:41;;;;;;;4.00;2.70;;;22.30;42.60;;;;;;4166058;28;20052;-48
2021/09/06 04:56:43;;;;;;;4.88;2.45;;;22.30;42.60;;;;;;4165874;28;20106;-49
2021/09/06 04:58:45;;;;;;;5.22;2.92;;;22.30;42.60;;;;;;4165874;28;20142;-50
2021/09/06 05:00:47;;;;;;;8.35;2.85;;;22.30;42.50;;;;;;4165769;28;20057;-50
2021/09/06 05:02:49;;;;;;;6.43;3.08;;;22.30;42.60;;;;;;4165427;28;20050;-51
2021/09/06 05:04:51;;;;;;;5.80;2.72;;;22.30;42.70;;;;;;4165773;28;20129;-49
2021/09/06 05:06:54;;;;;;;6.22;3.42;;;22.30;42.80;;;;;;4165533;28;20065;-51
2021/09/06 05:08:58;;;;;;;6.13;3.13;;;22.30;42.70;;;;;;4165649;28;20045;-51
2021/09/06 05:11:00;;;;;;;5.50;2.97;;;22.30;42.60;;;;;;4165552;28;20041;-50
2021/09/06 05:13:02;;;;;;;6.07;3.22;;;22.30;42.80;;;;;;4165652;28;20097;-48
2021/09/06 05:15:05;;;;;;;4.90;3.45;;;22.30;42.80;;;;;;4165638;28;20046;-48
2021/09/06 05:17:08;;;;;;;6.15;3.13;;;22.30;42.60;;;;;;4165478;28;20046;-52
2021/09/06 05:19:10;;;;;;;5.63;3.28;;;22.30;42.80;;;;;;4165488;28;20065;-50
2021/09/06 05:21:12;;;;;;;4.13;2.85;;;22.30;42.70;;;;;;4165369;28;20080;-49
2021/09/06 05:23:14;;;;;;;4.50;3.25;;;22.30;42.80;;;;;;4165506;28;20053;-48
2021/09/06 05:25:16;;;;;;;4.50;3.22;;;22.20;42.80;;;;;;4165290;28;20052;-52
2021/09/06 05:27:18;;;;;;;4.45;2.65;;;22.30;42.80;;;;;;4165317;28;20049;-50
2021/09/06 05:29:20;;;;;;;7.03;3.03;;;22.30;43.00;;;;;;4165457;28;20072;-52
2021/09/06 05:31:22;;;;;;;4.97;3.13;;;22.30;42.90;;;;;;4165263;28;20097;-50
2021/09/06 05:33:24;;;;;;;8.82;3.95;;;22.30;42.70;;;;;;4165010;28;20053;-51
2021/09/06 05:35:27;;;;;;;8.50;4.68;;;22.20;42.70;;;;;;4165088;28;20061;-52
2021/09/06 05:37:29;;;;;;;6.32;4.05;;;22.30;42.90;;;;;;4164264;28;20056;-51
2021/09/06 05:39:31;;;;;;;11.88;5.13;;;22.20;42.90;;;;;;4165274;28;20050;-50
2021/09/06 05:41:33;;;;;;;8.57;6.40;;;22.30;42.90;;;;;;4165287;28;20073;-47
2021/09/06 05:43:35;;;;;;;7.63;5.45;;;22.30;43.00;;;;;;4165163;28;20101;-53
2021/09/06 05:45:38;;;;;;;10.48;6.32;;;22.30;43.00;;;;;;4165118;28;20097;-51
2021/09/06 05:47:40;;;;;;;10.13;6.65;;;22.30;43.00;;;;;;4164877;28;20042;-50
2021/09/06 05:49:44;;;;;;;13.18;8.45;;;22.30;43.00;;;;;;4164013;28;20069;-53
2021/09/06 05:51:46;;;;;;;13.45;9.52;;;22.30;42.90;;;;;;4165083;28;20093;-49
2021/09/06 05:53:48;;;;;;;15.73;8.93;;;22.30;43.00;;;;;;4164938;28;20041;-48
2021/09/06 05:55:50;;;;;;;13.75;7.75;;;22.30;43.20;;;;;;4164747;28;20042;-51
2021/09/06 05:57:52;;;;;;;15.88;8.57;;;22.30;43.20;;;;;;4164665;28;20106;-50
2021/09/06 05:59:54;;;;;;;9.55;6.85;;;22.30;43.10;;;;;;4164843;28;20054;-49
2021/09/06 06:01:56;;;;;;;11.65;6.38;;;22.30;43.20;;;;;;4164940;28;20072;-50
2021/09/06 06:03:58;;;;;;;9.32;4.97;;;22.30;43.10;;;;;;4164939;28;20046;-49
2021/09/06 06:06:01;;;;;;;13.35;5.88;;;22.30;43.00;;;;;;4164742;28;20121;-49
2021/09/06 06:08:03;;;;;;;8.32;5.68;;;22.30;43.10;;;;;;4164816;28;20044;-48
2021/09/06 06:10:05;;;;;;;9.48;4.93;;;22.30;42.90;;;;;;4164768;28;20073;-53
2021/09/06 06:12:07;;;;;;;7.00;4.68;;;22.30;43.10;;;;;;4164713;28;20144;-51
2021/09/06 06:14:09;;;;;;;10.13;4.57;;;22.30;43.20;;;;;;4164830;28;20102;-51
2021/09/06 06:16:11;;;;;;;6.60;4.43;;;22.30;43.30;;;;;;4164403;28;20065;-50
2021/09/06 06:18:13;;;;;;;5.90;4.03;;;22.30;43.30;;;;;;4164574;28;20110;-50
2021/09/06 06:20:18;;;;;;;8.77;4.38;;;22.30;43.20;;;;;;4163640;28;20076;-51
2021/09/06 06:22:25;;;;;;;6.88;4.38;;;22.30;43.10;;;;;;4164518;28;20046;-49
2021/09/06 06:24:27;;;;;;;8.23;4.30;;;22.30;43.10;;;;;;4164550;28;20116;-49
2021/09/06 06:26:29;;;;;;;8.75;3.92;;;22.30;43.30;;;;;;4164482;28;20045;-51
2021/09/06 06:28:31;;;;;;;8.02;4.10;;;22.30;43.00;;;;;;4164648;28;20048;-53
2021/09/06 06:30:33;;;;;;;8.63;4.32;;;22.30;43.10;;;;;;4164613;28;20069;-49
2021/09/06 06:32:35;;;;;;;6.35;4.13;;;22.30;43.10;;;;;;4164403;28;20053;-50
2021/09/06 06:34:37;;;;;;;7.45;3.92;;;22.30;43.00;;;;;;4164464;28;20046;-49
2021/09/06 06:36:39;;;;;;;10.13;4.05;;;22.30;43.20;;;;;;4164510;28;20077;-52
2021/09/06 06:38:46;;;;;;;5.35;3.53;;;22.30;43.20;;;;;;4164361;28;20042;-51
2021/09/06 06:40:48;;;;;;;5.82;4.00;;;22.30;43.10;;;;;;4164570;28;20073;-51
2021/09/06 06:42:50;;;;;;;8.32;4.53;;;22.30;43.20;;;;;;4164548;28;20097;-52
2021/09/06 06:44:52;;;;;;;5.80;3.83;;;22.30;43.00;;;;;;4164350;28;20076;-50
2021/09/06 06:46:54;;;;;;;6.03;3.67;;;22.30;43.20;;;;;;4164197;28;20042;-52
2021/09/06 06:48:56;;;;;;;8.38;3.42;;;22.30;43.10;;;;;;4164409;28;20073;-50
2021/09/06 06:50:58;;;;;;;5.00;3.20;;;22.30;43.10;;;;;;4164162;28;20105;-51
2021/09/06 06:53:00;;;;;;;6.25;3.58;;;22.30;43.00;;;;;;4164563;28;20038;-49
2021/09/06 06:55:03;;;;;;;8.15;3.60;;;22.30;43.20;;;;;;4164211;28;20049;-51
2021/09/06 06:57:06;;;;;;;5.05;3.33;;;22.30;43.10;;;;;;4164147;28;20054;-50
2021/09/06 06:59:08;;;;;;;8.02;3.38;;;22.30;43.10;;;;;;4164301;28;20120;-50
2021/09/06 07:01:10;;;;;;;9.40;3.55;;;22.30;43.00;;;;;;4164144;28;20069;-48
2021/09/06 07:03:13;;;;;;;5.32;3.45;;;22.30;43.00;;;;;;4164378;28;20080;-52
2021/09/06 07:05:15;;;;;;;5.13;3.22;;;22.30;42.90;;;;;;4164326;28;20057;-50
2021/09/06 07:07:17;;;;;;;7.20;3.55;;;22.30;42.90;;;;;;4163896;28;20045;-51
2021/09/06 07:09:19;;;;;;;6.97;3.40;;;22.30;42.80;;;;;;4165698;28;20065;-52
2021/09/06 07:11:21;;;;;;;5.90;3.05;;;22.30;42.80;;;;;;4167239;28;20097;-49
2021/09/06 07:13:23;;;;;;;5.07;3.30;;;22.30;42.90;;;;;;4167176;28;20097;-51
2021/09/06 07:15:31;;;;;;;6.40;3.80;;;22.30;42.80;;;;;;4167518;28;20065;-52
2021/09/06 07:17:34;;;;;;;6.57;2.80;;;22.30;42.90;;;;;;4167312;28;20105;-51
2021/09/06 07:19:36;;;;;;;5.47;3.42;;;22.30;42.90;;;;;;4167333;28;20056;-53
2021/09/06 07:21:38;;;;;;;6.35;3.70;;;22.30;42.80;;;;;;4167150;28;20054;-53
2021/09/06 07:23:40;;;;;;;5.82;2.90;;;22.40;42.80;;;;;;4167364;28;20073;-54
2021/09/06 07:25:42;;;;;;;4.95;2.80;;;22.30;42.90;;;;;;4167315;28;20105;-52
2021/09/06 07:27:44;;;;;;;5.68;3.17;;;22.30;42.90;;;;;;4167201;28;20097;-54
2021/09/06 07:29:46;;;;;;;5.78;3.17;;;22.30;42.90;;;;;;4167361;28;20072;-51
2021/09/06 07:31:48;;;;;;;7.40;3.67;;;22.30;43.10;;;;;;4167274;28;20048;-50
2021/09/06 07:33:50;;;;;;;5.50;3.60;;;22.40;42.80;;;;;;4167148;28;20072;-54
2021/09/06 07:35:52;;;;;;;7.68;3.03;;;22.40;43.00;;;;;;4167096;28;20109;-52
2021/09/06 07:37:55;;;;;;;5.55;3.25;;;22.30;42.70;;;;;;4167050;28;20050;-51
2021/09/06 07:39:57;;;;;;;7.20;2.85;;;22.40;42.70;;;;;;4167146;28;20149;-51
2021/09/06 07:42:00;;;;;;;3.60;2.88;;;22.30;42.70;;;;;;4166131;28;20046;-49
2021/09/06 07:44:02;;;;;;;6.32;3.05;;;22.40;42.90;;;;;;4167100;28;20052;-53
2021/09/06 07:46:04;;;;;;;3.78;2.80;;;22.30;42.70;;;;;;4166936;28;20045;-53
2021/09/06 07:48:07;;;;;;;7.38;3.35;;;22.40;42.90;;;;;;4166884;28;20138;-53
2021/09/06 07:50:11;;;;;;;4.88;3.13;;;22.40;42.70;;;;;;4165982;28;20057;-54
2021/09/06 07:52:14;;;;;;;7.38;3.17;;;22.40;42.70;;;;;;4167049;28;20087;-50
2021/09/06 07:54:16;;;;;;;3.60;2.65;;;22.40;42.80;;;;;;4167008;28;20052;-52
2021/09/06 07:56:18;;;;;;;5.20;2.83;;;22.40;42.80;;;;;;4182314;28;20096;-50
2021/09/06 07:58:20;;;;;;;7.88;3.28;;;22.40;42.80;;;;;;4166840;28;20105;-50
2021/09/06 08:00:22;;;;;;;6.40;2.67;;;22.40;42.80;;;;;;4166610;28;20046;-52
2021/09/06 08:02:24;;;;;;;8.77;3.17;;;22.40;42.70;;;;;;4166688;28;20049;-51
2021/09/06 08:04:26;;;;;;;4.07;2.50;;;22.40;42.80;;;;;;4166889;28;20287;-53
2021/09/06 08:06:28;;;;;;;5.63;3.40;;;22.30;43.00;;;;;;4166789;28;20097;-50
2021/09/06 08:08:30;;;;;;;4.10;2.80;;;22.40;42.90;;;;;;4165620;28;20038;-51
2021/09/06 08:10:33;;;;;;;7.00;2.83;;;22.40;43.10;;;;;;4166766;28;20456;-53
2021/09/06 08:12:37;;;;;;;7.03;3.13;;;22.40;42.80;;;;;;4165680;28;20052;-49
2021/09/06 08:14:39;;;;;;;4.15;2.92;;;22.40;42.80;;;;;;4166381;28;20045;-53
2021/09/06 08:16:41;;;;;;;6.57;2.97;;;22.40;42.80;;;;;;4166638;28;20041;-50
2021/09/06 08:18:43;;;;;;;4.70;2.83;;;22.40;42.90;;;;;;4166598;28;20046;-53
2021/09/06 08:20:45;;;;;;;3.85;2.63;;;22.40;42.90;;;;;;4164897;28;20054;-51
2021/09/06 08:22:47;;;;;;;8.07;3.55;;;22.40;42.90;;;;;;4166214;28;20042;-51
2021/09/06 08:24:49;;;;;;;4.53;3.50;;;22.40;43.10;;;;;;4166326;28;20052;-49
2021/09/06 08:26:51;;;;;;;5.32;2.65;;;22.40;43.00;;;;;;4166341;28;20101;-50
2021/09/06 08:28:53;;;;;;;7.25;2.90;;;22.40;42.90;;;;;;4166371;28;20053;-48
2021/09/06 08:30:55;;;;;;;5.00;2.50;;;22.40;42.90;;;;;;4166247;28;20102;-49
2021/09/06 08:32:58;;;;;;;4.82;2.65;;;22.40;43.30;;;;;;4166338;28;20098;-50
2021/09/06 08:35:00;;;;;;;5.57;2.40;;;22.40;43.30;;;;;;4166332;28;20073;-53
2021/09/06 08:37:02;;;;;;;4.30;2.58;;;22.40;43.50;;;;;;4166243;28;20076;-52
2021/09/06 08:39:04;;;;;;;3.30;2.50;;;22.40;43.30;;;;;;4166357;28;20065;-52
2021/09/06 08:41:07;;;;;;;5.57;2.40;;;22.40;43.50;;;;;;4166118;28;20049;-51
2021/09/06 08:43:09;;;;;;;4.50;2.92;;;22.40;43.40;;;;;;4166066;28;20045;-53
2021/09/06 08:45:13;;;;;;;4.70;2.83;;;22.40;43.80;;;;;;4166023;28;20101;-51
2021/09/06 08:47:16;;;;;;;5.43;2.80;;;22.40;43.50;;;;;;4166013;28;20068;-52
2021/09/06 08:49:19;;;;;;;4.40;3.30;;;22.40;43.50;;;;;;4165081;28;20074;-53
2021/09/06 08:51:21;;;;;;;4.63;2.40;;;22.40;43.60;;;;;;4165957;28;20064;-53
2021/09/06 08:53:23;;;;;;;6.03;2.50;;;22.40;43.70;;;;;;4166250;28;20124;-53
2021/09/06 08:55:26;;;;;;;3.33;2.53;;;22.40;44.50;;;;;;4165874;28;20046;-53
2021/09/06 08:57:31;;;;;;;4.15;2.42;;;22.40;44.10;;;;;;4165957;28;20076;-53
2021/09/06 08:59:33;;;;;;;6.03;2.80;;;22.40;44.10;;;;;;4165684;28;20049;-51
2021/09/06 09:01:39;;;;;;;4.22;2.70;;;22.40;44.10;;;;;;4165792;28;20805;-53
2021/09/06 09:03:42;;;;;;;4.40;2.63;;;22.40;44.00;;;;;;4165706;28;20077;-51
2021/09/06 09:06:01;;;;;;;4.38;2.72;;;22.40;44.30;;;;;;4165717;28;20442;-54
2021/09/06 09:08:03;;;;;;;3.50;2.10;;;22.40;44.20;;;;;;4165568;28;20072;-51
2021/09/06 09:10:10;;;;;;;3.45;2.47;;;22.40;44.30;;;;;;4165525;28;20073;-53
2021/09/06 09:12:16;;;;;;;6.03;2.60;;;22.40;44.40;;;;;;4165553;28;20068;-54
2021/09/06 09:14:18;;;;;;;5.72;2.67;;;22.40;44.30;;;;;;4165305;28;20056;-51
2021/09/06 09:16:20;;;;;;;3.30;2.20;;;22.40;44.40;;;;;;4165445;28;20080;-51
2021/09/06 09:18:27;;;;;;;6.18;2.90;;;22.40;44.40;;;;;;4165390;28;20041;-52
2021/09/06 09:20:40;;;;;;;4.97;2.92;;;22.40;44.40;;;;;;4165550;28;20042;-50
2021/09/06 09:22:43;;;;;;;3.22;2.40;;;22.40;44.50;;;;;;4165387;28;20104;-53
2021/09/06 09:25:00;;;;;;;5.80;2.80;;;22.40;44.70;;;;;;4165378;28;20128;-52
2021/09/06 09:27:08;;;;;;;6.35;2.63;;;22.40;44.60;;;;;;4165350;28;20046;-53
2021/09/06 09:29:18;;;;;;;5.05;2.22;;;22.40;44.50;;;;;;4165216;28;20038;-51
2021/09/06 09:31:21;;;;;;;3.90;2.65;;;22.40;44.60;;;;;;4164323;28;20066;-50
2021/09/06 09:33:30;;;;;;;3.53;2.60;;;22.40;44.60;;;;;;4165176;28;20038;-53
2021/09/06 09:35:32;;;;;;;3.60;2.50;;;22.40;44.70;;;;;;4165161;28;20050;-49
2021/09/06 09:37:35;;;;;;;4.18;2.33;;;22.40;44.70;;;;;;4165290;28;20046;-52
2021/09/06 09:39:37;;;;;;;2.95;2.10;;;22.40;44.70;;;;;;4165242;28;20050;-51
2021/09/06 09:41:41;;;;;;;5.18;3.25;;;22.40;44.70;;;;;;4164994;28;20056;-51
2021/09/06 09:43:44;;;;;;;3.55;2.03;;;22.40;44.80;;;;;;4165078;28;20046;-48
2021/09/06 09:45:45;;;;;;;3.97;2.42;;;22.40;44.80;;;;;;4164942;28;20061;-55
2021/09/06 09:47:53;;;;;;;3.20;2.20;;;22.40;44.80;;;;;;4164883;28;20158;-51
2021/09/06 09:49:59;;;;;;;4.30;2.75;;;22.40;45.00;;;;;;4164798;28;20058;-49
2021/09/06 09:52:01;;;;;;;3.88;2.70;;;22.40;44.90;;;;;;4165127;28;20101;-51
2021/09/06 09:54:05;;;;;;;3.97;2.63;;;22.40;45.00;;;;;;4164982;28;20061;-50
2021/09/06 09:56:08;;;;;;;4.80;2.17;;;22.40;45.00;;;;;;4164712;28;20077;-49
2021/09/06 09:58:10;;;;;;;3.88;2.25;;;22.40;45.00;;;;;;4164957;28;20056;-49
2021/09/06 10:00:14;;;;;;;2.65;2.20;;;22.40;45.00;;;;;;4164724;28;20069;-48
2021/09/06 10:02:24;;;;;;;4.68;2.75;;;22.40;45.10;;;;;;4164695;28;20117;-51
2021/09/06 10:04:31;;;;;;;5.60;2.67;;;22.40;45.30;;;;;;4164826;28;20077;-51
2021/09/06 10:06:35;;;;;;;3.00;2.30;;;22.40;45.10;;;;;;4165021;28;20070;-48
2021/09/06 10:08:39;;;;;;;5.22;2.60;;;22.40;45.10;;;;;;4164858;28;20049;-50
2021/09/06 10:10:41;;;;;;;4.78;2.47;;;22.40;45.20;;;;;;4164682;28;20045;-50
2021/09/06 10:13:07;;;;;;;3.45;2.28;;;22.40;45.20;;;;;;4164559;28;20142;-49
2021/09/06 10:15:10;;;;;;;4.53;2.10;;;22.40;45.30;;;;;;4161488;28;20058;-49
2021/09/06 10:17:12;;;;;;;4.15;2.55;;;22.40;45.30;;;;;;4164493;28;20068;-47
2021/09/06 10:19:16;;;;;;;3.13;2.15;;;22.40;45.50;;;;;;4163743;28;20046;-50
2021/09/06 10:21:19;;;;;;;3.80;2.53;;;22.40;45.30;;;;;;4164814;28;20081;-51
2021/09/06 10:23:22;;;;;;;4.07;2.47;;;22.40;45.40;;;;;;4164697;28;20053;-54
2021/09/06 10:25:29;;;;;;;3.70;2.67;;;22.40;45.30;;;;;;4164631;28;20052;-47
2021/09/06 10:27:36;;;;;;;4.03;2.10;;;22.40;45.50;;;;;;4164554;28;20071;-50
2021/09/06 10:29:38;;;;;;;5.70;2.63;;;22.40;45.40;;;;;;4164526;28;20037;-51
2021/09/06 10:31:40;;;;;;;3.53;2.17;;;22.40;45.40;;;;;;4164343;28;20120;-48
2021/09/06 10:33:43;;;;;;;3.10;2.15;;;22.40;45.60;;;;;;4164489;28;20038;-51
2021/09/06 10:35:47;;;;;;;3.78;2.65;;;22.40;45.70;;;;;;4164457;28;20049;-49
2021/09/06 10:38:03;;;;;;;2.97;2.20;;;22.40;45.50;;;;;;4164521;28;20098;-49